createdAt,value
2022-11-28T00:01:41.269Z,12.73
2022-11-28T00:04:08.475Z,13.93
2022-11-28T00:06:40.656Z,13.88
2022-11-28T00:09:08.474Z,13.05
2022-11-28T00:11:35.191Z,13.45
2022-11-28T00:14:01.770Z,12.25
2022-11-28T00:16:28.433Z,12.82
2022-11-28T00:18:55.406Z,15.07
2022-11-28T00:21:24.638Z,14.75
2022-11-28T00:23:52.010Z,14.13
2022-11-28T00:26:31.387Z,14.48
2022-11-28T00:28:59.172Z,14.40
2022-11-28T00:31:29.274Z,12.43
2022-11-28T00:33:56.455Z,16.65
2022-11-28T00:36:24.080Z,14.05
2022-11-28T00:38:51.445Z,14.82
2022-11-28T00:41:29.363Z,14.18
2022-11-28T00:43:55.925Z,13.05
2022-11-28T00:46:23.703Z,16.30
2022-11-28T00:48:50.919Z,13.70
2022-11-28T00:51:23.045Z,12.95
2022-11-28T00:53:51.594Z,14.70
2022-11-28T00:56:21.478Z,13.25
2022-11-28T00:58:49.828Z,13.27
2022-11-28T01:01:20.910Z,13.82
2022-11-28T01:03:49.360Z,13.23
2022-11-28T01:06:26.103Z,12.68
2022-11-28T01:08:52.707Z,11.70
2022-11-28T01:11:20.088Z,13.75
2022-11-28T01:13:47.196Z,13.93
2022-11-28T01:16:14.308Z,13.35
2022-11-28T01:18:41.149Z,12.63
2022-11-28T01:21:08.477Z,14.45
2022-11-28T01:23:35.356Z,12.63
2022-11-28T01:26:03.057Z,12.77
2022-11-28T01:28:29.619Z,14.02
2022-11-28T01:30:56.195Z,12.48
2022-11-28T01:33:22.933Z,13.93
2022-11-28T01:35:57.987Z,12.90
2022-11-28T01:38:25.315Z,12.15
2022-11-28T01:40:52.365Z,15.60
2022-11-28T01:43:19.258Z,13.98
2022-11-28T01:45:45.936Z,14.43
2022-11-28T01:48:18.488Z,14.02
2022-11-28T01:50:46.202Z,12.98
2022-11-28T01:53:13.885Z,13.27
2022-11-28T01:55:49.306Z,12.15
2022-11-28T01:58:16.002Z,13.02
2022-11-28T02:00:42.752Z,12.50
2022-11-28T02:03:18.940Z,13.05
2022-11-28T02:05:46.906Z,12.77
2022-11-28T02:08:13.454Z,14.43
2022-11-28T02:10:39.888Z,13.48
2022-11-28T02:13:34.494Z,12.43
2022-11-28T02:16:19.005Z,15.68
2022-11-28T02:18:57.387Z,13.50
2022-11-28T02:21:32.937Z,14.32
2022-11-28T02:24:14.550Z,14.85
2022-11-28T02:26:56.720Z,16.13
2022-11-28T02:29:35.486Z,13.00
2022-11-28T02:32:30.156Z,14.93
2022-11-28T02:35:27.677Z,13.30
2022-11-28T02:38:27.978Z,16.20
2022-11-28T02:41:06.420Z,13.60
2022-11-28T02:43:41.984Z,16.60
2022-11-28T02:46:11.436Z,15.18
2022-11-28T02:48:41.679Z,14.27
2022-11-28T02:51:44.183Z,21.13
2022-11-28T02:54:13.404Z,17.13
2022-11-28T02:56:50.701Z,12.30
2022-11-28T02:59:32.415Z,15.02
2022-11-28T03:02:00.771Z,14.80
2022-11-28T03:04:33.006Z,18.27
2022-11-28T03:07:06.357Z,17.67
2022-11-28T03:09:41.908Z,17.95
2022-11-28T03:12:17.942Z,15.43
2022-11-28T03:14:53.778Z,17.75
2022-11-28T03:17:52.213Z,15.45
2022-11-28T03:20:47.041Z,16.88
2022-11-28T03:23:21.171Z,16.48
2022-11-28T03:25:47.571Z,14.32
2022-11-28T03:28:26.044Z,17.08
2022-11-28T03:31:10.952Z,14.20
2022-11-28T03:33:39.310Z,17.35
2022-11-28T03:36:12.151Z,17.23
2022-11-28T03:38:42.950Z,15.77
2022-11-28T03:41:28.513Z,18.20
2022-11-28T03:43:58.333Z,14.45
2022-11-28T03:46:35.226Z,14.38
2022-11-28T03:49:03.531Z,16.77
2022-11-28T03:51:37.308Z,13.95
2022-11-28T03:54:14.595Z,16.23
2022-11-28T03:56:47.156Z,13.77
2022-11-28T03:59:23.399Z,16.77
2022-11-28T04:02:18.151Z,16.27
2022-11-28T04:05:24.570Z,16.92
2022-11-28T04:08:01.344Z,15.30
2022-11-28T04:10:35.376Z,13.40
2022-11-28T04:13:15.580Z,14.02
2022-11-28T04:16:11.294Z,12.10
2022-11-28T04:18:51.056Z,12.52
2022-11-28T04:21:43.698Z,11.93
2022-11-28T04:24:21.660Z,12.57
2022-11-28T04:26:54.841Z,10.82
2022-11-28T04:29:24.315Z,13.65
2022-11-28T04:31:56.059Z,12.65
2022-11-28T04:34:23.731Z,13.90
2022-11-28T04:36:52.543Z,11.00
2022-11-28T04:39:22.094Z,11.27
2022-11-28T04:41:53.594Z,11.10
2022-11-28T04:44:29.783Z,12.02
2022-11-28T04:46:57.808Z,11.05
2022-11-28T04:49:26.619Z,11.45
2022-11-28T04:52:14.473Z,14.15
2022-11-28T04:54:53.655Z,11.88
2022-11-28T04:57:46.563Z,11.97
2022-11-28T05:00:16.817Z,12.93
2022-11-28T05:02:45.726Z,10.73
2022-11-28T05:05:23.468Z,13.30
2022-11-28T05:07:50.012Z,10.95
2022-11-28T05:10:17.930Z,13.60
2022-11-28T05:12:44.454Z,15.52
2022-11-28T05:15:11.871Z,15.30
2022-11-28T05:17:42.120Z,14.27
2022-11-28T05:20:10.034Z,17.08
2022-11-28T05:22:36.535Z,16.25
2022-11-28T05:25:03.317Z,15.73
2022-11-28T05:27:29.834Z,14.68
2022-11-28T05:29:56.363Z,15.55
2022-11-28T05:32:22.887Z,15.90
2022-11-28T05:34:49.394Z,15.18
2022-11-28T05:37:15.955Z,15.93
2022-11-28T05:39:42.643Z,13.50
2022-11-28T05:42:09.302Z,15.45
2022-11-28T05:44:37.150Z,12.30
2022-11-28T05:47:03.959Z,15.88
2022-11-28T05:49:30.510Z,15.88
2022-11-28T05:51:56.971Z,13.30
2022-11-28T05:54:23.487Z,14.82
2022-11-28T05:56:50.031Z,14.02
2022-11-28T05:59:16.516Z,14.77
2022-11-28T06:01:43.508Z,12.98
2022-11-28T06:04:10.100Z,14.32
2022-11-28T06:06:36.995Z,14.35
2022-11-28T06:09:04.709Z,13.73
2022-11-28T06:11:32.653Z,15.20
2022-11-28T06:13:59.295Z,13.98
2022-11-28T06:16:27.951Z,14.32
2022-11-28T06:18:57.057Z,13.82
2022-11-28T06:21:24.917Z,12.18
2022-11-28T06:23:52.811Z,13.23
2022-11-28T06:26:22.161Z,12.02
2022-11-28T06:28:49.178Z,10.25
2022-11-28T06:31:18.610Z,12.52
2022-11-28T06:33:45.620Z,10.52
2022-11-28T06:36:13.604Z,11.57
2022-11-28T06:38:40.669Z,13.32
2022-11-28T06:41:10.198Z,10.52
2022-11-28T06:43:37.405Z,9.38
2022-11-28T06:46:04.658Z,10.88
2022-11-28T06:48:32.256Z,11.70
2022-11-28T06:51:04.374Z,10.85
2022-11-28T06:53:31.731Z,11.70
2022-11-28T06:55:58.517Z,11.57
2022-11-28T06:58:25.024Z,12.27
2022-11-28T07:00:51.602Z,14.20
2022-11-28T07:03:18.190Z,13.55
2022-11-28T07:05:45.052Z,13.82
2022-11-28T07:08:11.800Z,10.45
2022-11-28T07:10:38.565Z,13.07
2022-11-28T07:13:05.740Z,13.30
2022-11-28T07:15:32.438Z,10.45
2022-11-28T07:17:58.980Z,12.90
2022-11-28T07:20:25.479Z,12.60
2022-11-28T07:22:51.978Z,13.02
2022-11-28T07:25:18.535Z,14.40
2022-11-28T07:27:45.017Z,14.30
2022-11-28T07:30:11.763Z,15.40
2022-11-28T07:32:41.651Z,15.15
2022-11-28T07:35:09.055Z,12.07
2022-11-28T07:37:36.264Z,14.75
2022-11-28T07:40:03.867Z,14.85
2022-11-28T07:42:30.424Z,11.65
2022-11-28T07:44:56.962Z,13.68
2022-11-28T07:47:23.476Z,11.70
2022-11-28T07:49:50.050Z,14.98
2022-11-28T07:52:16.560Z,13.05
2022-11-28T07:54:43.085Z,16.70
2022-11-28T07:57:13.355Z,13.32
2022-11-28T07:59:40.752Z,12.73
2022-11-28T08:02:09.047Z,12.63
2022-11-28T08:04:37.135Z,13.27
2022-11-28T08:07:03.721Z,11.63
2022-11-28T08:09:31.791Z,12.68
2022-11-28T08:11:58.713Z,12.93
2022-11-28T08:14:25.393Z,11.93
2022-11-28T08:16:52.407Z,13.45
2022-11-28T08:19:22.959Z,13.63
2022-11-28T08:21:51.377Z,13.93
2022-11-28T08:24:17.845Z,14.23
2022-11-28T08:26:44.405Z,15.70
2022-11-28T08:29:11.116Z,15.82
2022-11-28T08:31:38.894Z,13.82
2022-11-28T08:34:09.328Z,14.02
2022-11-28T08:36:35.889Z,13.38
2022-11-28T08:39:22.718Z,12.50
2022-11-28T08:41:49.869Z,12.85
2022-11-28T08:44:16.404Z,12.85
2022-11-28T08:46:43.060Z,12.45
2022-11-28T08:49:09.599Z,13.60
2022-11-28T08:51:36.938Z,13.38
2022-11-28T08:54:03.513Z,14.20
2022-11-28T08:56:30.625Z,12.23
2022-11-28T08:58:57.181Z,12.13
2022-11-28T09:01:40.870Z,12.13
2022-11-28T09:04:24.220Z,12.63
2022-11-28T09:06:54.210Z,11.98
2022-11-28T09:09:20.825Z,12.85
2022-11-28T09:11:47.529Z,12.20
2022-11-28T09:14:14.127Z,12.65
2022-11-28T09:16:41.054Z,11.13
2022-11-28T09:19:09.266Z,11.88
2022-11-28T09:21:37.257Z,10.90
2022-11-28T09:24:04.308Z,9.73
2022-11-28T09:26:30.873Z,9.50
2022-11-28T09:28:57.422Z,11.10
2022-11-28T09:31:24.070Z,10.25
2022-11-28T09:33:50.804Z,10.38
2022-11-28T09:36:20.441Z,11.13
2022-11-28T09:38:47.637Z,12.23
2022-11-28T09:41:49.244Z,11.50
2022-11-28T09:44:30.342Z,11.90
2022-11-28T09:47:02.399Z,11.07
2022-11-28T09:49:36.803Z,10.63
2022-11-28T09:52:43.792Z,11.40
2022-11-28T09:55:39.308Z,9.27
2022-11-28T09:58:15.532Z,9.82
2022-11-28T10:01:21.010Z,9.63
2022-11-28T10:04:03.365Z,9.75
2022-11-28T10:07:07.998Z,11.07
2022-11-28T10:09:44.174Z,10.55
2022-11-28T10:12:20.205Z,10.60
2022-11-28T10:14:54.717Z,12.02
2022-11-28T10:17:37.231Z,10.25
2022-11-28T10:20:06.510Z,9.18
2022-11-28T10:22:42.998Z,9.20
2022-11-28T10:25:31.443Z,9.20
2022-11-28T10:27:58.231Z,10.10
2022-11-28T10:30:33.929Z,8.93
2022-11-28T10:33:23.129Z,8.68
2022-11-28T10:37:25.835Z,9.10
2022-11-28T10:43:59.582Z,10.07
2022-11-28T10:46:47.677Z,9.20
2022-11-28T10:54:28.398Z,8.57
2022-11-28T10:57:02.814Z,8.35
2022-11-28T11:00:18.739Z,8.73
2022-11-28T11:03:14.702Z,8.15
2022-11-28T11:06:07.291Z,7.88
2022-11-28T11:08:40.878Z,7.78
2022-11-28T11:11:37.449Z,8.50
2022-11-28T11:14:07.393Z,8.07
2022-11-28T11:16:57.033Z,8.07
2022-11-28T11:19:30.029Z,8.55
2022-11-28T11:22:02.623Z,7.38
2022-11-28T11:24:29.514Z,7.72
2022-11-28T11:27:08.066Z,7.40
2022-11-28T11:29:37.405Z,8.02
2022-11-28T11:32:06.438Z,7.88
2022-11-28T11:34:42.475Z,8.27
2022-11-28T11:37:38.699Z,8.68
2022-11-28T11:40:26.962Z,8.73
2022-11-28T11:42:57.304Z,10.38
2022-11-28T11:45:34.235Z,10.02
2022-11-28T11:48:01.927Z,10.85
2022-11-28T11:50:30.432Z,12.88
2022-11-28T11:53:06.688Z,10.48
2022-11-28T11:55:43.210Z,10.77
2022-11-28T11:58:15.289Z,11.90
2022-11-28T12:00:43.529Z,11.23
2022-11-28T12:03:53.500Z,11.88
2022-11-28T12:06:27.940Z,10.02
2022-11-28T12:09:00.224Z,9.35
2022-11-28T12:11:31.933Z,10.13
2022-11-28T12:14:14.738Z,9.43
2022-11-28T12:16:41.661Z,10.45
2022-11-28T12:19:28.368Z,12.35
2022-11-28T12:22:13.180Z,10.38
2022-11-28T12:25:03.818Z,9.77
2022-11-28T12:27:32.915Z,10.35
2022-11-28T12:30:21.212Z,10.27
2022-11-28T12:33:14.456Z,9.30
2022-11-28T12:35:45.534Z,9.38
2022-11-28T12:38:41.298Z,10.23
2022-11-28T12:41:19.727Z,9.90
2022-11-28T12:44:25.291Z,9.55
2022-11-28T12:47:02.282Z,9.10
2022-11-28T12:49:45.735Z,11.38
2022-11-28T12:52:40.568Z,10.40
2022-11-28T12:55:30.595Z,9.80
2022-11-28T12:58:21.557Z,8.45
2022-11-28T13:01:00.470Z,8.02
2022-11-28T13:03:42.604Z,7.80
2022-11-28T13:06:22.199Z,8.00
2022-11-28T13:09:14.530Z,7.60
2022-11-28T13:12:03.530Z,7.32
2022-11-28T13:14:37.688Z,7.22
2022-11-28T13:20:09.274Z,7.78
2022-11-28T13:23:03.901Z,7.15
2022-11-28T13:25:47.754Z,7.50
2022-11-28T13:28:14.333Z,7.18
2022-11-28T13:30:58.747Z,6.78
2022-11-28T13:33:32.328Z,6.90
2022-11-28T13:36:01.254Z,7.85
2022-11-28T13:39:11.968Z,8.85
2022-11-28T13:42:35.978Z,7.15
2022-11-28T13:44:44.286Z,7.00
2022-11-28T13:47:27.950Z,7.55
2022-11-28T13:50:32.144Z,7.55
2022-11-28T13:53:07.692Z,9.23
2022-11-28T13:55:45.092Z,8.18
2022-11-28T13:58:23.510Z,8.90
2022-11-28T14:01:13.072Z,9.95
2022-11-28T14:03:49.357Z,7.95
2022-11-28T14:06:28.394Z,9.00
2022-11-28T14:09:16.255Z,9.73
2022-11-28T14:11:59.913Z,8.93
2022-11-28T14:14:56.860Z,8.93
2022-11-28T14:17:47.099Z,7.97
2022-11-28T14:20:28.948Z,11.27
2022-11-28T14:23:30.830Z,9.13
2022-11-28T14:25:58.899Z,8.65
2022-11-28T14:28:37.845Z,10.55
2022-11-28T14:31:32.054Z,8.25
2022-11-28T14:34:01.711Z,8.40
2022-11-28T14:36:34.250Z,7.50
2022-11-28T14:39:08.078Z,7.32
2022-11-28T14:42:03.538Z,8.35
2022-11-28T14:45:07.894Z,8.25
2022-11-28T14:47:39.446Z,8.20
2022-11-28T14:50:06.053Z,8.13
2022-11-28T14:52:39.443Z,13.43
2022-11-28T14:55:12.673Z,15.73
2022-11-28T14:57:44.916Z,8.60
2022-11-28T15:00:18.361Z,9.15
2022-11-28T15:03:22.573Z,11.23
2022-11-28T15:05:53.975Z,10.65
2022-11-28T15:09:01.031Z,10.00
2022-11-28T15:11:27.485Z,11.10
2022-11-28T15:14:17.442Z,10.85
2022-11-28T15:16:50.140Z,8.40
2022-11-28T15:19:39.503Z,8.00
2022-11-28T15:22:06.069Z,9.30
2022-11-28T15:24:35.300Z,9.55
2022-11-28T15:27:07.737Z,10.00
2022-11-28T15:29:35.899Z,9.40
2022-11-28T15:32:02.901Z,8.90
2022-11-28T15:34:32.203Z,8.65
2022-11-28T15:37:07.468Z,9.00
2022-11-28T15:39:40.532Z,8.98
2022-11-28T15:42:23.805Z,9.52
2022-11-28T15:45:14.413Z,11.48
2022-11-28T15:47:41.210Z,13.30
2022-11-28T15:50:11.509Z,11.20
2022-11-28T15:52:38.087Z,10.68
2022-11-28T15:55:16.023Z,9.38
2022-11-28T15:57:42.542Z,9.73
2022-11-28T16:00:13.681Z,10.10
2022-11-28T16:02:42.288Z,9.98
2022-11-28T16:05:10.715Z,10.50
2022-11-28T16:07:42.531Z,9.30
2022-11-28T16:10:32.794Z,9.32
2022-11-28T16:13:08.661Z,9.90
2022-11-28T16:15:36.886Z,12.48
2022-11-28T16:18:03.748Z,11.35
2022-11-28T16:20:35.696Z,11.15
2022-11-28T16:23:09.397Z,11.30
2022-11-28T16:25:36.873Z,10.65
2022-11-28T16:28:03.869Z,10.75
2022-11-28T16:30:44.675Z,11.98
2022-11-28T16:33:38.673Z,11.82
2022-11-28T16:36:19.717Z,11.50
2022-11-28T16:38:48.275Z,11.82
2022-11-28T16:41:25.098Z,12.90
2022-11-28T16:43:59.359Z,13.88
2022-11-28T16:46:32.200Z,13.15
2022-11-28T16:48:59.694Z,11.15
2022-11-28T16:51:26.185Z,11.07
2022-11-28T16:53:59.267Z,12.13
2022-11-28T16:56:27.109Z,12.15
2022-11-28T16:58:58.933Z,12.88
2022-11-28T17:01:25.715Z,12.95
2022-11-28T17:03:53.551Z,13.98
2022-11-28T17:06:34.253Z,12.88
2022-11-28T17:09:02.200Z,12.82
2022-11-28T17:11:33.187Z,13.20
2022-11-28T17:14:02.537Z,13.20
2022-11-28T17:16:33.406Z,14.25
2022-11-28T17:19:00.094Z,14.52
2022-11-28T17:21:42.439Z,14.82
2022-11-28T17:24:17.498Z,15.38
2022-11-28T17:26:44.148Z,17.33
2022-11-28T17:29:12.632Z,16.75
2022-11-28T17:31:42.393Z,18.73
2022-11-28T17:34:20.688Z,19.30
2022-11-28T17:36:47.942Z,22.13
2022-11-28T17:39:14.941Z,23.25
2022-11-28T17:41:41.589Z,21.38
2022-11-28T17:44:24.204Z,21.30
2022-11-28T17:46:52.971Z,22.70
2022-11-28T17:49:20.227Z,18.70
2022-11-28T17:51:47.303Z,16.95
2022-11-28T17:54:18.880Z,15.23
2022-11-28T17:56:47.743Z,14.20
2022-11-28T17:59:18.847Z,16.65
2022-11-28T18:01:46.581Z,15.40
2022-11-28T18:04:13.218Z,16.52
2022-11-28T18:06:43.753Z,16.48
2022-11-28T18:09:12.336Z,15.82
2022-11-28T18:11:40.294Z,15.20
2022-11-28T18:14:07.243Z,15.88
2022-11-28T18:16:35.897Z,15.73
2022-11-28T18:19:03.383Z,15.65
2022-11-28T18:21:29.958Z,16.15
2022-11-28T18:23:56.501Z,15.57
2022-11-28T18:26:25.011Z,15.18
2022-11-28T18:28:52.073Z,17.35
2022-11-28T18:31:22.632Z,17.55
2022-11-28T18:33:49.739Z,21.70
2022-11-28T18:36:19.453Z,22.33
2022-11-28T18:38:46.800Z,23.70
2022-11-28T18:41:15.572Z,18.27
2022-11-28T18:43:42.580Z,16.85
2022-11-28T18:46:12.037Z,16.40
2022-11-28T18:48:40.705Z,15.40
2022-11-28T18:51:21.863Z,17.15
2022-11-28T18:53:49.776Z,17.27
2022-11-28T18:56:16.985Z,19.35
2022-11-28T18:58:47.841Z,108.70
2022-11-28T19:01:25.115Z,205.80
2022-11-28T19:03:54.156Z,138.40
2022-11-28T19:06:21.462Z,60.50
2022-11-28T19:08:52.597Z,33.70
2022-11-28T19:11:19.187Z,28.95
2022-11-28T19:13:47.428Z,18.55
2022-11-28T19:16:18.150Z,16.52
2022-11-28T19:18:45.100Z,17.00
2022-11-28T19:21:17.855Z,16.42
2022-11-28T19:23:44.691Z,16.08
2022-11-28T19:26:14.277Z,15.73
2022-11-28T19:28:41.995Z,16.75
2022-11-28T19:31:22.554Z,16.42
2022-11-28T19:34:02.352Z,16.63
2022-11-28T19:36:33.416Z,17.23
2022-11-28T19:39:00.240Z,16.58
2022-11-28T19:41:28.404Z,15.93
2022-11-28T19:43:54.937Z,14.95
2022-11-28T19:46:21.431Z,14.68
2022-11-28T19:48:47.954Z,16.20
2022-11-28T19:51:15.819Z,15.45
2022-11-28T19:53:43.571Z,14.10
2022-11-28T19:56:16.600Z,15.00
2022-11-28T19:58:43.798Z,13.82
2022-11-28T20:01:12.488Z,14.65
2022-11-28T20:03:41.132Z,14.73
2022-11-28T20:06:15.954Z,16.00
2022-11-28T20:08:43.132Z,16.25
2022-11-28T20:11:10.646Z,15.60
2022-11-28T20:13:37.217Z,15.13
2022-11-28T20:16:05.942Z,14.98
2022-11-28T20:18:32.900Z,15.05
2022-11-28T20:21:06.209Z,14.13
2022-11-28T20:23:33.271Z,14.60
2022-11-28T20:26:04.698Z,14.93
2022-11-28T20:28:35.821Z,14.93
2022-11-28T20:31:02.517Z,14.50
2022-11-28T20:33:29.782Z,13.48
2022-11-28T20:36:11.022Z,14.70
2022-11-28T20:38:37.540Z,14.90
2022-11-28T20:41:05.852Z,14.93
2022-11-28T20:43:34.257Z,14.55
2022-11-28T20:46:05.366Z,14.77
2022-11-28T20:48:32.120Z,12.95
2022-11-28T20:50:58.733Z,15.85
2022-11-28T20:53:27.043Z,13.98
2022-11-28T20:56:01.658Z,14.63
2022-11-28T20:58:28.796Z,15.20
2022-11-28T21:00:57.133Z,14.70
2022-11-28T21:03:24.657Z,14.70
2022-11-28T21:05:56.417Z,13.85
2022-11-28T21:08:26.163Z,15.35
2022-11-28T21:10:52.658Z,14.50
2022-11-28T21:13:19.373Z,15.35
2022-11-28T21:15:45.920Z,14.77
2022-11-28T21:18:16.146Z,13.98
2022-11-28T21:20:45.671Z,19.10
2022-11-28T21:23:13.796Z,16.88
2022-11-28T21:25:42.301Z,18.17
2022-11-28T21:28:09.776Z,21.85
2022-11-28T21:30:42.600Z,18.92
2022-11-28T21:33:11.061Z,15.95
2022-11-28T21:35:39.193Z,17.33
2022-11-28T21:38:06.683Z,17.10
2022-11-28T21:40:33.703Z,18.90
2022-11-28T21:43:00.270Z,18.67
2022-11-28T21:45:26.872Z,17.33
2022-11-28T21:47:53.448Z,16.23
2022-11-28T21:50:20.043Z,15.63
2022-11-28T21:52:46.515Z,13.02
2022-11-28T21:55:12.988Z,16.10
2022-11-28T21:57:42.111Z,13.70
2022-11-28T22:00:25.679Z,15.10
2022-11-28T22:03:02.532Z,13.55
2022-11-28T22:05:31.652Z,14.10
2022-11-28T22:07:58.494Z,13.90
2022-11-28T22:10:25.046Z,13.45
2022-11-28T22:12:51.622Z,14.93
2022-11-28T22:15:18.215Z,13.35
2022-11-28T22:17:44.697Z,14.07
2022-11-28T22:20:11.853Z,14.30
2022-11-28T22:22:38.393Z,13.65
2022-11-28T22:25:05.368Z,14.32
2022-11-28T22:27:32.458Z,14.18
2022-11-28T22:29:59.069Z,15.00
2022-11-28T22:32:25.559Z,14.20
2022-11-28T22:34:52.085Z,14.32
2022-11-28T22:37:18.574Z,13.80
2022-11-28T22:39:45.106Z,13.48
2022-11-28T22:42:11.691Z,14.27
2022-11-28T22:44:38.222Z,15.50
2022-11-28T22:47:05.004Z,15.13
2022-11-28T22:49:31.530Z,13.90
2022-11-28T22:51:57.993Z,13.18
2022-11-28T22:54:24.506Z,14.55
2022-11-28T22:56:53.103Z,14.50
2022-11-28T22:59:19.707Z,13.75
2022-11-28T23:01:46.311Z,15.05
2022-11-28T23:04:12.805Z,13.55
2022-11-28T23:06:39.923Z,15.23
2022-11-28T23:09:08.342Z,15.50
2022-11-28T23:11:38.270Z,13.77
2022-11-28T23:14:05.598Z,14.70
2022-11-28T23:16:34.669Z,14.23
2022-11-28T23:19:05.115Z,14.10
2022-11-28T23:21:37.193Z,13.90
2022-11-28T23:24:04.765Z,14.38
2022-11-28T23:26:32.147Z,14.20
2022-11-28T23:29:00.807Z,13.82
2022-11-28T23:31:30.113Z,13.55
2022-11-28T23:33:57.931Z,14.18
2022-11-28T23:36:28.664Z,14.38
2022-11-28T23:38:57.748Z,12.82
2022-11-28T23:41:25.226Z,14.50
2022-11-28T23:43:51.799Z,14.80
2022-11-28T23:46:19.607Z,13.63
2022-11-28T23:48:46.934Z,14.95
2022-11-28T23:51:18.843Z,14.65
2022-11-28T23:53:45.720Z,15.25
2022-11-28T23:56:15.564Z,14.73
2022-11-28T23:58:42.621Z,15.80
